Lynden Pindling International Airport
MYNN : now visible

Airfield :











YOU CAN JOIN US ON...

 
LOGIN :

Register | Disclaimer

   EN    FR    IT 

 









Legend :    VFR   Marginal VFR   IFR   Intensive IFR   Very Intensive IFR
Visi :
Ceiling :
>= 8 km
>= 3000ft
5 to 8 km
1000 to 3000 ft
1500m to 5 km
500 to 1000 ft
800 to 1500m
200 to 500 ft
< 800m
< 200 ft
Symbols :   Thunderstorms  Fog  Heavy snow  Heavy precipitations  Wind > 20 kt






- Airport Elevation : 16 ft
- IATA code : NAS


MYNN - Lynden Pindling International

CURRENT METAR :
  • 251000Z 11006KT 9999 SCT025 BKN250 27/23 A3005

EXPIRED METARs :
  • 250900Z 11007KT 9999 SCT025 SCT250 27/23 A3005

TAF MYNN
Valid from the 25 at 06:00 until the 26 at 06:00 UTC


250430Z 2506/2606 10007G17KT 9000 SHRA FEW015CB SCT030
FM251200 10012KT 9999 SCT020
PROB40
TEMPO 2518/2600 8000 SHRA FEW015CB BKN018
MYNA FIR / North America



MET'MAP, your aeronautical weather chart ! - Copyright ORBIFLY December 2007 - Disclaimer

ORBIFLY MET'MAP TEAM :

Programming & Development : Alexandra Zaïnal
Concept & original design : Baudouin d'Aumeries
Assistance for programming : Marc-Olivier Méhu
Technical & hardware support : Manuel Goepfert

Contact : metmap@orbifly.com




SOURCES & CREDITS :

   NOAA       Earth
Advisory